Okauchee, WI

12:07 PM CST on February 01, 2015 (GMT -0600)
Genesee Lake Farms | Change Station
CLOSE
Current Station
Personal Weather Station
Location: Oconomowoc, WI
Elevation: 884 ft
Nearby Weather Stations
Active Advisory: Winter Storm Warning Active Notice: Local Storm Report

Elev 884 ft 43.04 °N, 88.49 °W | Updated 48 seconds ago

Snow
Snow
22.5 °F
Feels Like 15 °F
N
6.0
Wind Variable Wind from ESE
Gusts 15.0 mph

Today
High -- | Low -- °F
--% Chance of Precip.
Yesterday
High -- | Low -- °F
Precip. -- in
7:09 AM 5:05 PM
Waxing Gibbous, 95% visible
Pressure 30.00 in
Visibility 1.0 miles
Clouds Mostly Cloudy 900 ft
Overcast 1400 ft
Windchill 15 °F
Dew Point 20 °F
Humidity 92%
Rainfall 0.00 in
Snow Depth Not available.
UV 1 out of 12
Pollen .10 out of 12
Air Quality Not available.
Flu Activity Not available.
METAR KUES 011645Z 05010G25KT 1SM -SN BKN009 OVC014 M06/M07 A3000

More Conditions Fewer Conditions

Pressure 30.00 in
Visibility 1.0 miles
Clouds Mostly Cloudy 900 ft
Overcast 1400 ft
Windchill 15 °F
Dew Point 20 °F
Humidity 92%
Rainfall 0.00 in
Snow Depth Not available.
UV 1 out of 12
Pollen .10 out of 12
Air Quality Not available.
Flu Activity Not available.
METAR KUES 011645Z 05010G25KT 1SM -SN BKN009 OVC014 M06/M07 A3000

More Conditions Fewer Conditions

10-Day Weather Forecast

Almanac

Astronomy

Feb. 01, 2015 Rise Set
Actual Time
Civil Twilight
Nautical Twilight
Astronomical Twilight
Moon
Length of Visible Light
Length of Day
Tomorrow will be .
, % of the Moon is Illuminated

Today's Extremes

State Highs State Lows

Community

WunderPhotos

Upload Photos

1,792,417 photos uploaded!

WunderBlogs® & News

Nearby

Air Quality

  Air Quality AQ Index Pollutant
Not available.

Snow Depth

Station Depth Elevation

Earthquake Activity

City Distance Mag. Time & Date
Minimum magnitude displayed is 2.5.

Coastal Water Temperatures

Place Temperature

Nearby Weather Stations